Time;durP1;ratioP1;P1;durP2;ratioP2;P2;SDS_P1;SDS_P2;PMS_P1;PMS_P2;Temp;Humidity;BMP_temperature;BMP_pressure;BME280_temperature;BME280_humidity;BME280_pressure;Samples;Min_cycle;Max_cycle;Signal;HPM_P1;HPM_P2
2022/06/15 00:00:24;;;;;;;;;7.25;6.00;;;;;24.67;37.09;101030.44;2113291;27;47891;-63
2022/06/15 00:01:26;;;;;;;;;6.75;6.75;;;;;24.67;36.75;101035.88;2096723;28;47777;-63
2022/06/15 00:02:27;;;;;;;;;7.00;7.00;;;;;24.65;37.09;101030.56;2096448;27;48049;-63
2022/06/15 00:03:30;;;;;;;;;7.00;7.00;;;;;24.64;36.99;101032.38;2113757;27;47838;-64
2022/06/15 00:04:31;;;;;;;;;6.50;6.50;;;;;24.63;37.21;101033.38;2113468;27;47801;-63
2022/06/15 00:05:31;;;;;;;;;8.33;8.33;;;;;24.62;37.12;101026.22;2113057;27;47948;-63
2022/06/15 00:06:37;;;;;;;;;6.67;6.67;;;;;24.61;37.29;101021.78;2104583;28;47700;-64
2022/06/15 00:07:37;;;;;;;;;8.00;8.00;;;;;24.61;37.15;101023.63;2104429;27;48065;-63
2022/06/15 00:08:39;;;;;;;;;8.00;7.00;;;;;24.59;37.39;101026.44;2112882;27;47506;-63
2022/06/15 00:09:39;;;;;;;;;9.20;7.40;;;;;24.60;37.61;101021.88;2113524;27;47439;-63
2022/06/15 00:10:40;;;;;;;;;8.00;8.00;;;;;24.59;36.98;101029.16;2112761;27;46686;-63
2022/06/15 00:11:42;;;;;;;;;5.00;5.00;;;;;24.58;37.09;101026.56;2113320;27;47801;-63
2022/06/15 00:12:42;;;;;;;;;8.00;8.00;;;;;24.57;37.61;101023.00;2113474;27;47957;-64
2022/06/15 00:13:44;;;;;;;;;7.75;7.75;;;;;24.57;36.88;101024.84;2109762;27;47796;-64
2022/06/15 00:14:45;;;;;;;;;8.00;7.80;;;;;24.58;37.25;101029.28;2105133;28;47537;-64
2022/06/15 00:15:47;;;;;;;;;7.00;7.00;;;;;24.55;37.60;101029.53;2112349;27;47262;-64
2022/06/15 00:16:49;;;;;;;;;9.00;9.00;;;;;24.56;37.28;101031.25;2113587;27;47988;-64
2022/06/15 00:17:49;;;;;;;;;6.75;6.75;;;;;24.55;36.98;101032.25;2113956;27;47568;-64
2022/06/15 00:18:50;;;;;;;;;6.75;6.75;;;;;24.55;37.35;101029.53;2111920;27;47938;-64
2022/06/15 00:19:50;;;;;;;;;10.25;9.25;;;;;24.55;37.39;101021.38;2113213;27;47178;-64
2022/06/15 00:20:50;;;;;;;;;8.50;8.25;;;;;24.53;37.37;101023.34;2113731;27;48150;-64
2022/06/15 00:21:51;;;;;;;;;7.00;6.75;;;;;24.52;37.26;101016.16;2113139;27;47414;-64
2022/06/15 00:22:52;;;;;;;;;9.00;8.75;;;;;24.51;37.57;101020.72;2108015;27;47518;-64
2022/06/15 00:23:52;;;;;;;;;8.00;8.00;;;;;24.51;37.43;101018.00;2112571;27;48064;-64
2022/06/15 00:24:53;;;;;;;;;6.33;6.33;;;;;24.50;37.83;101021.72;2113010;27;47791;-64
2022/06/15 00:25:54;;;;;;;;;8.00;8.00;;;;;24.50;37.42;101021.72;2114058;27;47571;-62
2022/06/15 00:26:54;;;;;;;;;7.60;7.60;;;;;24.49;37.38;101022.69;2112561;27;47306;-63
2022/06/15 00:27:54;;;;;;;;;8.00;7.25;;;;;24.49;37.65;101019.97;2112898;27;47628;-63
2022/06/15 00:28:55;;;;;;;;;8.00;8.00;;;;;24.49;37.50;101021.81;2113462;27;48051;-63
2022/06/15 00:29:55;;;;;;;;;6.75;6.00;;;;;24.48;37.48;101020.09;2112989;27;48039;-64
2022/06/15 00:30:57;;;;;;;;;7.00;7.00;;;;;24.48;37.61;101025.53;2113729;27;46999;-64
2022/06/15 00:31:57;;;;;;;;;7.80;7.80;;;;;24.47;37.87;101019.22;2112604;27;47642;-64
2022/06/15 00:32:57;;;;;;;;;7.00;6.50;;;;;24.47;37.68;101024.66;2112670;27;47503;-64
2022/06/15 00:33:58;;;;;;;;;8.75;8.25;;;;;24.48;37.33;101022.81;2114046;27;47821;-64
2022/06/15 00:34:58;;;;;;;;;6.00;6.00;;;;;24.46;37.88;101022.94;2113691;27;47928;-64
2022/06/15 00:36:02;;;;;;;;;6.25;6.25;;;;;24.45;37.82;101020.34;2107984;27;47496;-64
2022/06/15 00:37:05;;;;;;;;;7.80;7.40;;;;;24.45;37.75;101020.34;2105925;27;47210;-64
2022/06/15 00:38:07;;;;;;;;;7.40;7.40;;;;;24.45;37.67;101020.34;2107867;27;47571;-64
2022/06/15 00:39:08;;;;;;;;;6.40;6.40;;;;;24.44;37.43;101027.59;2109415;27;47828;-62
2022/06/15 00:40:09;;;;;;;;;8.60;8.60;;;;;24.43;37.77;101025.03;2105244;27;48105;-63
2022/06/15 00:41:12;;;;;;;;;8.50;7.75;;;;;24.42;37.54;101029.56;2100905;28;47160;-62
2022/06/15 00:42:13;;;;;;;;;6.20;6.00;;;;;24.42;37.78;101028.72;2109429;27;45877;-63
2022/06/15 00:43:37;;;;;;;;;4.75;4.75;;;;;24.41;37.53;101026.97;2103816;27;47676;-63
2022/06/15 00:44:39;;;;;;;;;6.20;6.20;;;;;24.40;38.01;101030.69;2105083;28;47572;-63
2022/06/15 00:45:40;;;;;;;;;8.20;8.20;;;;;24.38;37.91;101027.19;2110882;27;47879;-63
2022/06/15 00:46:41;;;;;;;;;7.00;7.00;;;;;24.36;37.88;101028.16;2106718;27;47496;-63
2022/06/15 00:47:44;;;;;;;;;7.40;7.40;;;;;24.36;38.18;101028.16;2113713;27;48060;-63
2022/06/15 00:48:48;;;;;;;;;7.80;7.80;;;;;24.36;37.75;101030.00;2109282;27;47784;-65
2022/06/15 00:49:56;;;;;;;;;7.00;5.80;;;;;24.36;37.95;101032.72;2109998;27;47672;-63
2022/06/15 00:50:57;;;;;;;;;7.00;7.00;;;;;24.35;38.27;101029.16;2113660;27;48024;-64
2022/06/15 00:52:15;;;;;;;;;8.75;6.75;;;;;24.34;38.10;101035.56;2109293;27;47931;-62
2022/06/15 00:53:15;;;;;;;;;5.20;5.20;;;;;24.33;38.19;101032.97;2113365;27;47672;-63
2022/06/15 00:54:16;;;;;;;;;5.00;5.00;;;;;24.31;38.24;101030.38;2101838;28;47608;-63
2022/06/15 00:55:25;;;;;;;;;5.40;5.40;;;;;24.31;37.90;101029.50;2100346;27;48017;-63
2022/06/15 00:56:29;;;;;;;;;8.00;8.00;;;;;24.29;38.19;101028.72;2109285;27;48008;-63
2022/06/15 00:57:29;;;;;;;;;6.60;6.00;;;;;24.28;37.98;101030.56;2112792;27;47684;-63
2022/06/15 00:58:31;;;;;;;;;4.75;4.50;;;;;24.26;37.98;101026.22;2109196;27;47686;-62
2022/06/15 00:59:38;;;;;;;;;6.40;6.40;;;;;24.26;38.30;101026.22;2109769;27;47616;-64
2022/06/15 01:00:39;;;;;;;;;5.80;5.80;;;;;24.25;38.36;101027.19;2103466;27;47442;-64
2022/06/15 01:01:40;;;;;;;;;5.25;5.25;;;;;24.23;38.38;101027.31;2104536;28;47365;-63
2022/06/15 01:02:41;;;;;;;;;5.20;5.20;;;;;24.21;38.17;101026.56;2108921;27;47984;-64
2022/06/15 01:03:42;;;;;;;;;6.00;5.60;;;;;24.20;38.50;101019.41;2097893;28;45548;-63
2022/06/15 01:04:53;;;;;;;;;5.20;5.20;;;;;24.20;38.40;101027.56;2096645;28;47637;-63
2022/06/15 01:06:12;;;;;;;;;5.80;5.80;;;;;24.20;38.68;101022.13;2109149;27;47748;-63
2022/06/15 01:07:40;;;;;;;;;6.20;5.00;;;;;24.20;38.70;101026.69;2102252;27;47326;-63
2022/06/15 01:08:51;;;;;;;;;7.00;7.00;;;;;24.19;38.36;101025.81;2108527;27;46800;-62
2022/06/15 01:10:25;;;;;;;;;6.20;6.00;;;;;24.18;38.73;101024.09;2086792;28;47451;-63
2022/06/15 01:11:40;;;;;;;;;6.00;6.00;;;;;24.17;38.73;101030.50;2055107;28;47535;-63
2022/06/15 01:13:01;;;;;;;;;5.60;5.60;;;;;24.16;38.75;101027.91;2064337;28;47855;-63
2022/06/15 01:14:26;;;;;;;;;4.80;4.80;;;;;24.15;38.70;101029.75;2064823;28;47883;-63
2022/06/15 01:15:58;;;;;;;;;6.00;6.00;;;;;24.14;38.70;101030.72;2068943;28;48199;-63
2022/06/15 01:16:59;;;;;;;;;4.00;4.00;;;;;24.15;38.96;101026.16;2068499;28;48026;-63
2022/06/15 01:18:13;;;;;;;;;5.00;5.00;;;;;24.12;38.56;101027.22;2063693;28;47052;-63
2022/06/15 01:19:38;;;;;;;;;5.80;5.80;;;;;24.12;39.21;101034.50;2062550;28;47211;-63
2022/06/15 01:21:02;;;;;;;;;4.00;4.00;;;;;24.09;39.19;101030.19;2057712;28;47651;-64
2022/06/15 01:22:21;;;;;;;;;4.00;4.00;;;;;24.06;39.08;101025.00;2066233;28;48206;-64
2022/06/15 01:23:43;;;;;;;;;5.60;5.60;;;;;24.03;39.05;101026.09;2067423;28;48110;-63
2022/06/15 01:24:57;;;;;;;;;5.00;5.00;;;;;24.02;39.14;101024.34;2066232;28;48247;-63
2022/06/15 01:26:25;;;;;;;;;6.00;6.00;;;;;24.01;39.38;101025.34;2066119;28;48172;-62
2022/06/15 01:28:02;;;;;;;;;4.00;4.00;;;;;23.99;39.14;101020.97;2067597;28;47653;-63
2022/06/15 01:29:35;;;;;;;;;5.40;5.40;;;;;23.97;39.45;101022.94;2067396;28;47969;-63
2022/06/15 01:30:54;;;;;;;;;5.80;5.80;;;;;23.96;39.48;101029.34;2057088;28;47707;-64
2022/06/15 01:31:58;;;;;;;;;6.80;6.80;;;;;23.96;39.27;101023.91;2070112;28;48011;-64
2022/06/15 01:33:08;;;;;;;;;8.20;6.80;;;;;23.95;39.54;101025.75;2067160;28;47772;-64
2022/06/15 01:34:17;;;;;;;;;4.00;4.00;;;;;23.95;39.62;101016.78;2066068;28;46475;-63
2022/06/15 01:35:32;;;;;;;;;6.00;6.00;;;;;23.95;39.84;101020.34;2068549;28;47850;-64
2022/06/15 01:36:42;;;;;;;;;6.00;6.00;;;;;23.96;39.55;101018.50;2069138;28;48013;-63
2022/06/15 01:37:56;;;;;;;;;3.00;3.00;;;;;23.95;39.53;101024.91;2066355;28;48077;-63
2022/06/15 01:39:11;;;;;;;;;4.20;4.20;;;;;23.94;39.74;101029.47;2063715;28;47841;-63
2022/06/15 01:40:23;;;;;;;;;5.00;5.00;;;;;23.94;39.71;101023.16;2066259;28;47752;-63
2022/06/15 01:41:34;;;;;;;;;6.40;6.00;;;;;23.92;39.63;101020.56;2062653;28;47599;-63
2022/06/15 01:42:42;;;;;;;;;5.00;5.00;;;;;23.91;39.90;101018.84;2065537;28;47798;-64
2022/06/15 01:44:08;;;;;;;;;5.00;5.00;;;;;23.92;39.77;101019.72;2066206;28;47759;-63
2022/06/15 01:45:12;;;;;;;;;5.20;5.20;;;;;23.92;39.77;101027.84;2062755;28;45126;-63
2022/06/15 01:46:12;;;;;;;;;4.60;4.60;;;;;23.91;39.73;101021.56;2065214;28;47592;-63
2022/06/15 01:47:20;;;;;;;;;5.50;5.50;;;;;23.90;39.81;101011.69;2066240;28;47444;-63
2022/06/15 01:48:20;;;;;;;;;5.00;5.00;;;;;23.90;39.95;101018.97;2068355;28;48195;-63
2022/06/15 01:49:30;;;;;;;;;5.00;5.00;;;;;23.90;39.85;101010.81;2103133;27;47726;-64
2022/06/15 01:50:39;;;;;;;;;5.80;5.80;;;;;23.88;39.92;101010.91;2112784;27;47799;-64
2022/06/15 01:51:42;;;;;;;;;6.20;5.80;;;;;23.89;39.96;101018.09;2110017;27;47449;-64
2022/06/15 01:52:49;;;;;;;;;5.80;5.80;;;;;23.89;39.82;101009.97;2112587;27;48305;-64
2022/06/15 01:54:00;;;;;;;;;6.00;6.00;;;;;23.90;40.03;101016.25;2108990;27;47513;-63
2022/06/15 01:55:13;;;;;;;;;4.60;4.00;;;;;23.90;40.01;101008.13;2100673;28;47866;-64
2022/06/15 01:56:23;;;;;;;;;5.80;5.00;;;;;23.90;39.92;101008.13;2108900;27;48228;-64
2022/06/15 01:57:28;;;;;;;;;6.00;5.20;;;;;23.88;39.85;101002.78;2106496;27;47970;-64
2022/06/15 01:58:31;;;;;;;;;5.80;5.80;;;;;23.88;40.22;101000.06;2106471;27;47520;-63
2022/06/15 01:59:58;;;;;;;;;5.00;5.00;;;;;23.88;40.41;101001.91;2109077;27;47767;-63
2022/06/15 02:01:10;;;;;;;;;5.00;5.00;;;;;23.85;40.16;101003.00;2108998;27;47593;-63
2022/06/15 02:02:14;;;;;;;;;5.80;5.80;;;;;23.85;39.94;100996.72;2105953;27;47659;-63
2022/06/15 02:03:25;;;;;;;;;6.60;5.40;;;;;23.85;39.96;101007.56;2112818;27;47478;-65
2022/06/15 02:05:04;;;;;;;;;4.50;4.50;;;;;23.84;40.24;101000.41;2112883;27;47844;-63
2022/06/15 02:06:14;;;;;;;;;5.50;5.50;;;;;23.83;40.27;101001.41;2088155;28;47741;-63
2022/06/15 02:07:27;;;;;;;;;6.50;6.50;;;;;23.81;40.14;101001.50;2080818;28;47819;-63
2022/06/15 02:09:03;;;;;;;;;5.40;5.40;;;;;23.80;40.33;100999.78;2080281;28;47558;-62
2022/06/15 02:10:14;;;;;;;;;5.00;5.00;;;;;23.78;40.43;101001.75;2086816;28;47824;-64
2022/06/15 02:11:21;;;;;;;;;6.80;5.00;;;;;23.75;40.24;101001.94;2086689;28;47918;-64
2022/06/15 02:12:32;;;;;;;;;4.50;4.00;;;;;23.72;40.47;101000.31;2091028;28;47918;-64
2022/06/15 02:13:47;;;;;;;;;6.20;5.40;;;;;23.70;40.55;100998.69;2085079;28;47976;-63
2022/06/15 02:14:56;;;;;;;;;8.20;5.60;;;;;23.69;40.79;101000.56;2086872;28;47442;-63
2022/06/15 02:16:06;;;;;;;;;5.25;5.25;;;;;23.67;40.61;100988.97;2081955;28;47805;-64
2022/06/15 02:17:21;;;;;;;;;5.80;5.80;;;;;23.63;40.79;100994.69;2083622;28;47623;-64
2022/06/15 02:18:24;;;;;;;;;7.00;6.00;;;;;23.62;40.64;100995.66;2086659;28;48162;-64
2022/06/15 02:19:32;;;;;;;;;3.60;3.60;;;;;23.59;40.81;100996.75;2086460;28;47563;-64
2022/06/15 02:20:39;;;;;;;;;6.80;6.80;;;;;23.58;40.74;100992.31;2086702;28;48022;-64
2022/06/15 02:21:42;;;;;;;;;4.80;4.20;;;;;23.56;40.75;100987.97;2081300;28;47675;-63
2022/06/15 02:22:45;;;;;;;;;5.60;5.60;;;;;23.55;40.75;100987.09;2083064;28;47549;-64
2022/06/15 02:23:50;;;;;;;;;6.00;5.00;;;;;23.54;40.52;100990.78;2086687;28;47856;-64
2022/06/15 02:24:55;;;;;;;;;7.60;5.00;;;;;23.52;41.11;100989.16;2086572;28;47394;-63
2022/06/15 02:25:56;;;;;;;;;5.00;5.00;;;;;23.48;41.16;100991.22;2086802;28;48149;-64
2022/06/15 02:26:57;;;;;;;;;7.75;5.50;;;;;23.46;41.31;100990.44;2093162;28;46775;-64
2022/06/15 02:28:00;;;;;;;;;7.80;7.00;;;;;23.45;41.21;100989.59;2087249;28;48042;-64
2022/06/15 02:29:06;;;;;;;;;5.20;5.20;;;;;23.45;41.26;100994.13;2089889;28;47922;-63
2022/06/15 02:30:12;;;;;;;;;5.40;4.00;;;;;23.43;41.38;100996.09;2089008;28;47670;-64
2022/06/15 02:31:12;;;;;;;;;5.20;5.00;;;;;23.43;41.36;100990.69;2088350;28;47621;-64
2022/06/15 02:32:16;;;;;;;;;7.00;7.00;;;;;23.44;41.42;100997.81;2086208;28;48013;-64
2022/06/15 02:33:30;;;;;;;;;7.00;5.00;;;;;23.43;41.09;100990.69;2081537;28;47652;-63
2022/06/15 02:34:30;;;;;;;;;4.50;4.50;;;;;23.42;41.25;100997.06;2086322;28;48006;-63
2022/06/15 02:35:31;;;;;;;;;6.00;6.00;;;;;23.42;41.34;100989.81;2086515;28;47086;-63
2022/06/15 02:36:32;;;;;;;;;5.00;5.00;;;;;23.42;41.66;100997.06;2094851;28;47792;-63
2022/06/15 02:37:32;;;;;;;;;6.00;6.00;;;;;23.42;41.13;100992.53;2089911;28;47538;-63
2022/06/15 02:38:33;;;;;;;;;7.25;6.50;;;;;23.42;41.66;100991.66;2082211;28;47768;-63
2022/06/15 02:39:33;;;;;;;;;4.00;4.00;;;;;23.40;41.48;100983.66;2087026;28;47418;-63
2022/06/15 02:40:34;;;;;;;;;4.00;4.00;;;;;23.40;41.48;100986.34;2084732;28;47485;-63
2022/06/15 02:41:35;;;;;;;;;6.00;5.67;;;;;23.39;41.56;100987.34;2086661;28;47567;-64
2022/06/15 02:42:40;;;;;;;;;8.67;8.33;;;;;23.39;41.42;100986.47;2092964;28;47659;-64
2022/06/15 02:43:42;;;;;;;;;4.75;4.75;;;;;23.37;41.46;100985.69;2102963;27;47401;-63
2022/06/15 02:44:42;;;;;;;;;4.50;4.50;;;;;23.36;41.58;100986.66;2112623;27;48192;-63
2022/06/15 02:45:44;;;;;;;;;6.50;6.50;;;;;23.35;41.51;100983.09;2111504;27;47393;-63
2022/06/15 02:46:48;;;;;;;;;5.40;5.40;;;;;23.34;41.97;100984.06;2110888;27;47640;-63
2022/06/15 02:47:49;;;;;;;;;4.00;4.00;;;;;23.34;41.66;100988.63;2113014;27;47328;-64
2022/06/15 02:48:51;;;;;;;;;6.00;6.00;;;;;23.33;41.31;100985.03;2110677;27;47806;-63
2022/06/15 02:49:51;;;;;;;;;6.00;5.20;;;;;23.35;41.85;100984.94;2111014;27;48094;-64
2022/06/15 02:51:11;;;;;;;;;6.00;6.00;;;;;23.35;41.64;100984.94;2112959;27;47735;-64
2022/06/15 02:52:13;;;;;;;;;5.00;5.00;;;;;23.34;42.12;100984.06;2111250;27;48142;-64
2022/06/15 02:53:17;;;;;;;;;5.00;5.00;;;;;23.35;41.73;100979.50;2110465;27;47852;-62
2022/06/15 02:54:38;;;;;;;;;5.40;5.40;;;;;23.33;42.00;100981.47;2110070;27;47813;-63
2022/06/15 02:55:39;;;;;;;;;6.25;5.75;;;;;23.34;42.21;100977.78;2112718;27;48056;-63
2022/06/15 02:56:39;;;;;;;;;9.00;7.00;;;;;23.33;41.92;100979.63;2102003;28;47598;-63
2022/06/15 02:57:50;;;;;;;;;6.00;6.00;;;;;23.33;41.79;100970.63;2103928;28;47643;-64
2022/06/15 02:58:53;;;;;;;;;7.75;7.00;;;;;23.33;41.75;100978.75;2112409;27;47437;-63
2022/06/15 02:59:55;;;;;;;;;6.25;6.25;;;;;23.32;41.65;100985.16;2110820;27;47489;-61
2022/06/15 03:00:57;;;;;;;;;8.25;7.00;;;;;23.31;42.14;100981.56;2112441;27;47706;-63
2022/06/15 03:01:57;;;;;;;;;5.75;5.75;;;;;23.30;42.32;100985.25;2101006;27;47468;-64
2022/06/15 03:02:58;;;;;;;;;5.67;5.67;;;;;23.30;41.83;100978.97;2102842;28;47541;-63
2022/06/15 03:03:59;;;;;;;;;7.33;7.33;;;;;23.30;42.28;100985.25;2102417;28;47581;-63
2022/06/15 03:04:59;;;;;;;;;5.00;5.00;;;;;23.30;41.68;100987.09;2101949;28;47228;-62
2022/06/15 03:05:59;;;;;;;;;8.00;7.00;;;;;23.30;41.76;100987.97;2104246;28;47282;-63
2022/06/15 03:07:00;;;;;;;;;6.33;6.33;;;;;23.29;42.37;100983.53;2104611;27;47488;-63
2022/06/15 03:08:01;;;;;;;;;7.00;7.00;;;;;23.30;42.10;100978.97;2104140;28;48028;-63
2022/06/15 03:09:01;;;;;;;;;6.50;6.00;;;;;23.31;41.96;100975.28;2104349;28;47729;-63
2022/06/15 03:10:02;;;;;;;;;7.67;7.67;;;;;23.30;42.26;100978.97;2089930;28;47680;-63
2022/06/15 03:11:03;;;;;;;;;7.75;7.75;;;;;23.30;42.22;100985.25;2087224;28;47597;-63
2022/06/15 03:12:04;;;;;;;;;7.75;6.50;;;;;23.30;42.00;100982.56;2095685;28;47348;-63
2022/06/15 03:13:04;;;;;;;;;6.00;5.25;;;;;23.30;42.21;100977.13;2095929;28;47728;-63
2022/06/15 03:14:06;;;;;;;;;6.33;6.33;;;;;23.29;42.18;100986.25;2095562;28;48419;-63
2022/06/15 03:15:07;;;;;;;;;6.75;6.75;;;;;23.31;42.18;100983.41;2102576;28;47498;-63
2022/06/15 03:16:08;;;;;;;;;6.00;6.00;;;;;23.30;42.38;100985.25;2103990;28;47498;-63
2022/06/15 03:17:09;;;;;;;;;5.00;5.00;;;;;23.29;42.50;100979.97;2104588;28;47390;-63
2022/06/15 03:18:10;;;;;;;;;5.67;5.67;;;;;23.29;42.09;100980.81;2101295;28;47437;-62
2022/06/15 03:19:10;;;;;;;;;7.00;7.00;;;;;23.29;42.65;100985.38;2105802;28;48274;-63
2022/06/15 03:20:11;;;;;;;;;8.50;7.00;;;;;23.28;42.32;100980.94;2096910;28;47598;-62
2022/06/15 03:21:12;;;;;;;;;4.00;4.00;;;;;23.28;42.36;100983.66;2101365;28;47753;-64
2022/06/15 03:22:13;;;;;;;;;7.60;7.60;;;;;23.27;42.24;100982.78;2105495;28;47376;-62
2022/06/15 03:23:13;;;;;;;;;6.75;6.75;;;;;23.28;42.36;100986.34;2097544;28;47899;-62
2022/06/15 03:24:14;;;;;;;;;6.00;6.00;;;;;23.27;42.58;100993.63;2099366;28;47423;-62
2022/06/15 03:25:15;;;;;;;;;6.50;6.50;;;;;23.27;42.28;100987.34;2096603;28;47393;-63
2022/06/15 03:26:16;;;;;;;;;6.00;6.00;;;;;23.27;42.48;100996.31;2096362;28;47760;-64
2022/06/15 03:27:18;;;;;;;;;6.00;6.00;;;;;23.27;42.08;100993.63;2079482;28;47733;-63
2022/06/15 03:28:19;;;;;;;;;8.00;7.00;;;;;23.27;42.02;100993.63;2088613;28;47611;-62
2022/06/15 03:29:19;;;;;;;;;12.50;12.00;;;;;23.26;42.48;100997.28;2101026;28;48052;-62
2022/06/15 03:30:20;;;;;;;;;11.00;10.00;;;;;23.26;42.40;100993.72;2097221;28;48209;-63
2022/06/15 03:31:20;;;;;;;;;8.25;8.25;;;;;23.24;42.48;100996.50;2097194;28;47884;-63
2022/06/15 03:32:21;;;;;;;;;7.00;7.00;;;;;23.24;42.78;101001.94;2102647;27;47868;-63
2022/06/15 03:33:22;;;;;;;;;5.25;5.25;;;;;23.23;42.69;100994.78;2114163;27;47922;-62
2022/06/15 03:34:22;;;;;;;;;7.25;7.25;;;;;23.23;42.63;101000.19;2107790;27;47551;-64
2022/06/15 03:35:34;;;;;;;;;5.50;5.50;;;;;23.23;42.50;100997.50;2105561;28;47561;-62
2022/06/15 03:36:34;;;;;;;;;7.00;7.00;;;;;23.25;42.77;101002.78;2105912;28;47738;-61
2022/06/15 03:37:35;;;;;;;;;7.50;6.25;;;;;23.24;42.70;100996.50;2105592;28;47680;-62
2022/06/15 03:38:35;;;;;;;;;6.00;4.25;;;;;23.25;42.54;101000.09;2102396;28;48175;-62
2022/06/15 03:39:37;;;;;;;;;7.25;7.25;;;;;23.25;42.50;101000.09;2087297;28;47770;-63
2022/06/15 03:40:43;;;;;;;;;6.00;5.00;;;;;23.24;42.92;100996.50;2087391;28;48033;-62
2022/06/15 03:41:44;;;;;;;;;6.60;6.60;;;;;23.23;42.38;100994.78;2105587;28;47846;-62
2022/06/15 03:42:44;;;;;;;;;8.25;8.00;;;;;23.23;42.55;100997.50;2105610;28;48070;-63
2022/06/15 03:43:45;;;;;;;;;9.50;9.50;;;;;23.22;42.75;100990.34;2105463;28;47723;-63
2022/06/15 03:44:46;;;;;;;;;6.00;6.00;;;;;23.22;42.85;100990.34;2105548;28;45858;-63
2022/06/15 03:45:46;;;;;;;;;7.50;7.50;;;;;23.22;42.78;100997.59;2105575;28;47619;-64
2022/06/15 03:46:46;;;;;;;;;7.00;7.00;;;;;23.22;42.97;100994.88;2107833;27;47987;-63
2022/06/15 03:47:47;;;;;;;;;5.25;4.50;;;;;23.20;42.86;101001.28;2111103;27;47120;-63
2022/06/15 03:48:47;;;;;;;;;11.50;10.00;;;;;23.20;42.85;100998.56;2111249;27;48048;-63
2022/06/15 03:49:50;;;;;;;;;8.00;8.00;;;;;23.20;43.16;100997.72;2098131;28;47803;-63
2022/06/15 03:50:50;;;;;;;;;7.80;7.80;;;;;23.19;42.96;100995.97;2103034;28;47972;-63
2022/06/15 03:51:51;;;;;;;;;8.75;7.75;;;;;23.18;42.85;100996.94;2110301;27;47821;-63
2022/06/15 03:52:51;;;;;;;;;8.75;7.00;;;;;23.18;42.83;100996.94;2109309;27;48002;-63
2022/06/15 03:53:52;;;;;;;;;9.00;9.00;;;;;23.18;43.23;100995.13;2113440;27;48315;-63
2022/06/15 03:54:52;;;;;;;;;7.00;7.00;;;;;23.18;42.94;100995.13;2105364;28;47841;-63
2022/06/15 03:55:53;;;;;;;;;10.75;8.00;;;;;23.19;42.67;100996.84;2107890;27;47935;-64
2022/06/15 03:56:53;;;;;;;;;8.25;8.25;;;;;23.18;42.96;100995.13;2113861;27;47384;-63
2022/06/15 03:57:54;;;;;;;;;10.25;9.25;;;;;23.18;42.93;100991.53;2113003;27;47425;-63
2022/06/15 03:58:55;;;;;;;;;7.80;7.80;;;;;23.18;42.63;100991.53;2113961;27;47894;-63
2022/06/15 03:59:55;;;;;;;;;8.00;8.00;;;;;23.17;42.96;100992.50;2113895;27;47538;-63
2022/06/15 04:00:55;;;;;;;;;9.00;8.75;;;;;23.17;43.03;100989.81;2113966;27;47694;-62
2022/06/15 04:01:56;;;;;;;;;9.25;9.00;;;;;23.16;43.05;100993.50;2104583;28;47643;-63
2022/06/15 04:02:57;;;;;;;;;8.50;8.50;;;;;23.15;43.38;100987.22;2104130;27;48092;-63
2022/06/15 04:03:57;;;;;;;;;8.00;8.00;;;;;23.15;43.15;100997.19;2112838;27;46589;-64
2022/06/15 04:04:58;;;;;;;;;7.50;7.50;;;;;23.14;42.78;100990.03;2114022;27;47043;-64
2022/06/15 04:06:00;;;;;;;;;12.00;12.00;;;;;23.14;43.16;100996.31;2112727;27;47835;-64
2022/06/15 04:07:02;;;;;;;;;9.00;9.00;;;;;23.13;42.93;100993.72;2113865;27;47577;-65
2022/06/15 04:09:22;;;;;;;;;10.00;10.00;;;;;23.13;43.18;100988.31;2112989;27;47445;-64
2022/06/15 04:10:23;;;;;;;;;8.60;8.60;;;;;23.13;43.03;100989.16;2112807;27;46792;-64
2022/06/15 04:12:56;;;;;;;;;7.60;7.60;;;;;23.12;42.97;100983.81;2096162;28;47801;-63
2022/06/15 04:13:57;;;;;;;;;9.75;9.75;;;;;23.12;43.66;100990.13;2089699;28;47558;-63
2022/06/15 04:14:57;;;;;;;;;10.50;9.25;;;;;23.10;43.20;100989.34;2087861;28;47942;-64
2022/06/15 04:15:57;;;;;;;;;8.50;7.75;;;;;23.09;43.28;100995.75;2095902;28;47718;-62
2022/06/15 04:16:59;;;;;;;;;11.00;9.00;;;;;23.10;43.14;100996.63;2092182;28;47828;-63
2022/06/15 04:17:59;;;;;;;;;9.40;9.40;;;;;23.07;43.67;100995.00;2088702;28;48251;-63
2022/06/15 04:19:02;;;;;;;;;8.00;7.50;;;;;23.07;43.27;100999.53;2096176;28;47501;-63
2022/06/15 04:21:23;;;;;;;;;8.40;8.40;;;;;23.06;43.49;100998.66;2095577;28;47247;-64
2022/06/15 04:22:23;;;;;;;;;10.00;9.25;;;;;23.05;43.44;100996.94;2094103;28;47396;-64
2022/06/15 04:23:24;;;;;;;;;8.75;8.50;;;;;23.05;43.11;100990.66;2090988;28;47903;-64
2022/06/15 04:24:27;;;;;;;;;10.00;9.00;;;;;23.05;43.24;100994.22;2095673;28;47200;-64
2022/06/15 04:25:30;;;;;;;;;11.20;9.60;;;;;23.05;43.43;100991.53;2095127;28;47713;-64
2022/06/15 04:26:31;;;;;;;;;9.00;9.00;;;;;23.05;43.26;100994.22;2094835;28;48972;-64
2022/06/15 04:27:32;;;;;;;;;9.00;8.25;;;;;23.06;43.59;100981.56;2095935;28;47495;-64
2022/06/15 04:28:37;;;;;;;;;9.00;8.80;;;;;23.05;43.42;100993.38;2089193;28;47914;-63
2022/06/15 04:29:37;;;;;;;;;11.20;11.20;;;;;23.04;43.48;101000.63;2088223;28;47799;-64
2022/06/15 04:30:38;;;;;;;;;10.25;10.25;;;;;23.03;43.52;100987.19;2095205;28;47709;-64
2022/06/15 04:31:39;;;;;;;;;10.00;10.00;;;;;23.03;43.75;100989.91;2095599;28;45080;-64
2022/06/15 04:32:39;;;;;;;;;11.75;10.00;;;;;23.01;43.43;100987.31;2094867;28;47674;-63
2022/06/15 04:33:40;;;;;;;;;8.00;8.00;;;;;23.01;43.88;100998.13;2087621;28;47967;-63
2022/06/15 04:34:40;;;;;;;;;6.50;6.00;;;;;23.01;43.92;100998.13;2091270;28;47173;-64
2022/06/15 04:35:40;;;;;;;;;11.25;10.25;;;;;23.01;43.47;100994.56;2095567;28;48064;-64
2022/06/15 04:36:42;;;;;;;;;11.25;11.25;;;;;23.00;43.67;100988.28;2088396;28;47834;-64
2022/06/15 04:37:43;;;;;;;;;11.20;10.60;;;;;23.00;43.96;100991.00;2087377;28;47624;-63
2022/06/15 04:38:43;;;;;;;;;12.25;12.25;;;;;23.00;43.88;100992.84;2089081;28;47977;-62
2022/06/15 04:39:44;;;;;;;;;12.00;9.50;;;;;23.00;43.63;101000.94;2095444;28;47678;-64
2022/06/15 04:40:44;;;;;;;;;9.50;9.50;;;;;23.00;43.33;101006.38;2092075;28;47618;-64
2022/06/15 04:41:44;;;;;;;;;9.50;8.75;;;;;22.99;43.82;101002.75;2087711;28;47737;-64
2022/06/15 04:42:45;;;;;;;;;8.00;8.00;;;;;22.99;43.91;101010.88;2091327;28;47149;-63
2022/06/15 04:43:46;;;;;;;;;11.00;11.00;;;;;23.00;43.67;100998.25;2091424;28;48662;-64
2022/06/15 04:44:46;;;;;;;;;9.25;9.25;;;;;23.00;44.06;101004.53;2096058;28;45869;-63
2022/06/15 04:45:46;;;;;;;;;11.50;9.50;;;;;22.99;43.63;101002.75;2091031;28;47292;-63
2022/06/15 04:46:47;;;;;;;;;11.25;9.25;;;;;22.99;43.51;101001.91;2089381;28;47450;-64
2022/06/15 04:47:48;;;;;;;;;10.00;10.00;;;;;22.99;43.74;101002.75;2090229;28;47699;-63
2022/06/15 04:48:49;;;;;;;;;11.00;9.60;;;;;22.99;43.75;101005.47;2092908;28;47587;-64
2022/06/15 04:49:49;;;;;;;;;8.75;7.75;;;;;23.00;43.76;101004.53;2097578;28;47308;-63
2022/06/15 04:50:50;;;;;;;;;8.50;8.50;;;;;23.00;43.74;101004.53;2102392;28;48046;-63
2022/06/15 04:51:50;;;;;;;;;10.25;10.25;;;;;23.00;43.77;100998.25;2097241;28;47572;-64
2022/06/15 04:52:51;;;;;;;;;10.50;8.50;;;;;23.00;43.47;101004.53;2105087;28;47331;-63
2022/06/15 04:53:53;;;;;;;;;9.00;9.00;;;;;23.00;43.84;101001.81;2103229;28;47494;-64
2022/06/15 04:54:54;;;;;;;;;12.00;12.00;;;;;22.99;43.47;101010.88;2098400;27;48376;-64
2022/06/15 04:55:54;;;;;;;;;11.75;10.00;;;;;23.00;43.92;101009.06;2109597;27;47639;-64
2022/06/15 04:56:54;;;;;;;;;10.25;10.25;;;;;23.00;44.13;101007.22;2110942;27;47854;-65
2022/06/15 04:57:57;;;;;;;;;10.00;10.00;;;;;22.99;44.00;101004.59;2107070;27;47569;-64
2022/06/15 04:58:58;;;;;;;;;9.80;9.80;;;;;22.98;43.80;101001.03;2109997;27;47668;-63
2022/06/15 04:59:58;;;;;;;;;12.00;9.50;;;;;22.98;43.89;101009.16;2104815;28;47891;-63
2022/06/15 05:00:59;;;;;;;;;13.50;13.00;;;;;22.99;44.12;101008.19;2101018;27;47693;-64
2022/06/15 05:01:59;;;;;;;;;13.50;10.75;;;;;22.99;43.65;101001.91;2104635;27;47349;-64
2022/06/15 05:03:00;;;;;;;;;11.50;10.50;;;;;22.98;43.77;101014.56;2110899;27;47769;-64
2022/06/15 05:04:01;;;;;;;;;12.25;12.25;;;;;22.98;44.15;101006.44;2112584;27;47675;-64